Waynesboro, Pennsylvania
Current Conditions -  °F | °C
As of 10:53 AM on Thursday 30 Oct 2014 (Local Time) from KHGR Reporting Station
Overcast Overcast  
Wind Chill: 51°   Ceiling: 6500
Heat Index: 51°   Visibility: 10mi
Dew Point: 39°   Wind: 9mph
Humidity: 63%   Direction: 330°NNW
Pressure: 30.08"   Gusts: NA
Location:  39.76°N, 77.58°W
Report Text: KHGR 301453Z 33008KT 10SM OVC065 11/04 A3008 RMK AO2 SLP197 T01060039 51008
Loading
Personal Weather Stations






























Interactive Weather Map New forecast layout! Learn more

10-Day Weather Forecast

Advertisements
Track Severe Weather on mobile